Time;durP1;ratioP1;P1;durP2;ratioP2;P2;SDS_P1;SDS_P2;PMS_P1;PMS_P2;Temp;Humidity;BMP_temperature;BMP_pressure;BME280_temperature;BME280_humidity;BME280_pressure;Samples;Min_cycle;Max_cycle;Signal;HPM_P1;HPM_P2
2023/03/19 00:02:08;;;;;;;19.05;12.77;;;;;;;;;;5007162;28;20430;-80
2023/03/19 00:04:41;;;;;;;19.08;12.30;;;;;;;;;;5002568;28;20504;-80
2023/03/19 00:07:15;;;;;;;19.23;12.13;;;;;;;;;;4999846;28;20433;-80
2023/03/19 00:09:49;;;;;;;20.25;12.25;;;;;;;;;;4997206;28;20922;-80
2023/03/19 00:12:22;;;;;;;18.50;12.35;;;;;;;;;;5016905;28;20426;-80
2023/03/19 00:14:55;;;;;;;20.10;12.60;;;;;;;;;;5001193;28;20426;-80
2023/03/19 00:17:28;;;;;;;17.70;11.90;;;;;;;;;;5016930;28;20414;-80
2023/03/19 00:20:01;;;;;;;17.58;11.82;;;;;;;;;;5007952;28;20429;-80
2023/03/19 00:22:33;;;;;;;17.23;11.65;;;;;;;;;;5002092;28;20455;-80
2023/03/19 00:25:10;;;;;;;21.25;12.77;;;;;;;;;;4998975;28;20432;-80
2023/03/19 00:27:43;;;;;;;17.70;11.05;;;;;;;;;;5001783;28;20428;-80
2023/03/19 00:30:11;;;;;;;14.82;9.93;;;;;;;;;;5008104;28;20432;-80
2023/03/19 00:32:39;;;;;;;16.83;9.35;;;;;;;;;;5005962;28;20441;-80
2023/03/19 00:35:12;;;;;;;13.75;8.32;;;;;;;;;;5001151;28;20435;-81
2023/03/19 00:37:45;;;;;;;13.15;7.50;;;;;;;;;;5000310;28;20417;-80
2023/03/19 00:40:14;;;;;;;13.90;8.60;;;;;;;;;;5007851;28;20430;-80
2023/03/19 00:42:47;;;;;;;15.38;8.85;;;;;;;;;;4998796;28;20443;-80
2023/03/19 00:45:15;;;;;;;12.88;8.30;;;;;;;;;;4998570;28;20437;-80
2023/03/19 00:47:43;;;;;;;12.38;8.00;;;;;;;;;;5007546;28;20424;-80
2023/03/19 00:50:16;;;;;;;13.48;7.65;;;;;;;;;;4999376;28;20426;-80
2023/03/19 00:52:49;;;;;;;12.40;7.38;;;;;;;;;;5016939;28;20425;-80
2023/03/19 00:55:24;;;;;;;12.52;7.30;;;;;;;;;;5014173;28;20442;-80
2023/03/19 00:57:57;;;;;;;13.70;7.28;;;;;;;;;;5016606;28;20775;-80
2023/03/19 01:00:30;;;;;;;11.68;7.25;;;;;;;;;;5007929;28;20440;-80
2023/03/19 01:03:04;;;;;;;12.23;7.35;;;;;;;;;;5000708;28;20893;-80
2023/03/19 01:05:37;;;;;;;14.07;7.80;;;;;;;;;;5015086;28;20902;-81
2023/03/19 01:08:13;;;;;;;10.90;7.03;;;;;;;;;;5000699;28;21158;-81
2023/03/19 01:10:47;;;;;;;12.60;7.45;;;;;;;;;;5004783;28;20908;-81
2023/03/19 01:13:15;;;;;;;12.00;7.45;;;;;;;;;;5001053;28;20894;-80
2023/03/19 01:15:51;;;;;;;12.45;7.25;;;;;;;;;;4997338;28;20520;-80
2023/03/19 01:18:19;;;;;;;11.35;7.05;;;;;;;;;;5006344;28;20421;-80
2023/03/19 01:20:52;;;;;;;13.97;7.17;;;;;;;;;;5006593;28;20453;-80
2023/03/19 01:23:28;;;;;;;12.98;7.80;;;;;;;;;;5014798;28;20429;-80
2023/03/19 01:25:57;;;;;;;12.82;7.22;;;;;;;;;;4996047;28;20412;-80
2023/03/19 01:28:30;;;;;;;12.63;7.40;;;;;;;;;;5007564;28;20416;-81
2023/03/19 01:31:06;;;;;;;11.07;6.80;;;;;;;;;;5000716;28;20782;-80
2023/03/19 01:33:52;;;;;;;11.27;6.43;;;;;;;;;;5003496;28;20428;-80
2023/03/19 01:36:33;;;;;;;10.60;6.45;;;;;;;;;;5006024;28;20450;-81
2023/03/19 01:39:04;;;;;;;12.27;6.30;;;;;;;;;;5016183;28;20436;-80
2023/03/19 01:41:38;;;;;;;12.10;6.80;;;;;;;;;;4998819;28;20915;-81
2023/03/19 01:44:31;;;;;;;10.77;6.15;;;;;;;;;;5006347;28;20417;-81
2023/03/19 01:47:38;;;;;;;10.13;6.35;;;;;;;;;;4994040;28;20432;-80
2023/03/19 01:50:22;;;;;;;11.35;6.25;;;;;;;;;;5001328;28;20428;-80
2023/03/19 01:53:12;;;;;;;10.30;6.43;;;;;;;;;;5007859;28;20859;-81
2023/03/19 01:55:56;;;;;;;10.35;6.43;;;;;;;;;;5005931;28;20397;-80
2023/03/19 01:58:41;;;;;;;10.85;6.13;;;;;;;;;;5017320;28;20437;-80
2023/03/19 02:01:28;;;;;;;10.20;6.28;;;;;;;;;;5005448;28;20432;-81
2023/03/19 02:03:56;;;;;;;11.05;6.05;;;;;;;;;;5000174;28;20430;-80
2023/03/19 02:06:29;;;;;;;10.23;6.07;;;;;;;;;;5004237;28;20420;-80
2023/03/19 02:08:57;;;;;;;12.27;6.28;;;;;;;;;;5019596;28;20968;-80
2023/03/19 02:11:30;;;;;;;10.87;6.63;;;;;;;;;;5000784;28;20422;-80
2023/03/19 02:14:05;;;;;;;9.75;5.93;;;;;;;;;;5004493;28;20428;-80
2023/03/19 02:16:37;;;;;;;9.88;5.70;;;;;;;;;;5001797;28;20898;-80
2023/03/19 02:19:07;;;;;;;10.80;5.93;;;;;;;;;;5016556;28;20434;-80
2023/03/19 02:21:35;;;;;;;9.48;5.72;;;;;;;;;;5001796;28;20426;-80
2023/03/19 02:24:10;;;;;;;10.45;6.60;;;;;;;;;;5018843;28;20419;-80
2023/03/19 02:26:55;;;;;;;13.17;7.50;;;;;;;;;;5016717;28;20466;-80
2023/03/19 02:29:24;;;;;;;15.23;8.32;;;;;;;;;;5008154;28;20418;-80
2023/03/19 02:31:59;;;;;;;12.20;7.70;;;;;;;;;;5019495;28;21212;-80
2023/03/19 02:34:34;;;;;;;13.13;8.20;;;;;;;;;;5019728;28;20436;-80
2023/03/19 02:37:11;;;;;;;12.60;8.43;;;;;;;;;;5002282;28;20423;-80
2023/03/19 02:39:49;;;;;;;14.35;8.90;;;;;;;;;;5002916;28;20449;-80
2023/03/19 02:42:19;;;;;;;13.45;9.00;;;;;;;;;;5017622;28;20425;-80
2023/03/19 02:44:52;;;;;;;13.95;9.25;;;;;;;;;;5015822;28;20426;-80
2023/03/19 02:47:25;;;;;;;14.27;8.95;;;;;;;;;;5008680;28;20790;-80
2023/03/19 02:49:53;;;;;;;12.70;8.88;;;;;;;;;;5006198;28;20422;-80
2023/03/19 02:52:27;;;;;;;15.40;9.35;;;;;;;;;;5010037;28;20424;-80
2023/03/19 02:54:55;;;;;;;15.75;9.02;;;;;;;;;;5000593;28;20430;-80
2023/03/19 02:57:29;;;;;;;14.97;9.10;;;;;;;;;;5001187;28;20450;-80
2023/03/19 03:00:03;;;;;;;16.70;9.30;;;;;;;;;;5002712;28;20429;-80
2023/03/19 03:02:31;;;;;;;17.27;9.85;;;;;;;;;;5002483;28;20428;-80
2023/03/19 03:05:05;;;;;;;16.33;9.70;;;;;;;;;;5016610;28;20781;-79
2023/03/19 03:07:33;;;;;;;18.58;10.10;;;;;;;;;;5003977;28;20902;-80
2023/03/19 03:10:07;;;;;;;15.75;9.65;;;;;;;;;;4999786;28;20432;-80
2023/03/19 03:12:41;;;;;;;14.50;9.48;;;;;;;;;;5000498;28;20417;-80
2023/03/19 03:15:11;;;;;;;14.27;8.70;;;;;;;;;;5003821;28;20413;-81
2023/03/19 03:17:44;;;;;;;15.37;9.23;;;;;;;;;;5000683;28;20427;-80
2023/03/19 03:20:18;;;;;;;12.77;8.05;;;;;;;;;;5008937;28;20443;-81
2023/03/19 03:22:47;;;;;;;14.05;8.60;;;;;;;;;;5003150;28;20763;-80
2023/03/19 03:25:19;;;;;;;14.35;8.77;;;;;;;;;;5004482;28;20912;-80
2023/03/19 03:27:54;;;;;;;13.73;8.10;;;;;;;;;;5002049;28;20535;-80
2023/03/19 03:30:22;;;;;;;11.87;8.10;;;;;;;;;;5008284;28;20794;-80
2023/03/19 03:32:55;;;;;;;13.10;8.30;;;;;;;;;;5014994;28;20485;-80
2023/03/19 03:35:28;;;;;;;14.23;8.27;;;;;;;;;;5003932;28;20435;-80
2023/03/19 03:38:02;;;;;;;14.80;8.45;;;;;;;;;;5004250;28;20770;-80
2023/03/19 03:40:35;;;;;;;15.73;8.43;;;;;;;;;;5018354;28;20439;-80
2023/03/19 03:43:09;;;;;;;15.57;9.20;;;;;;;;;;5001642;28;20431;-80
2023/03/19 03:45:43;;;;;;;14.30;9.30;;;;;;;;;;5000018;28;20421;-80
2023/03/19 03:48:17;;;;;;;14.15;9.38;;;;;;;;;;5016257;28;20895;-80
2023/03/19 03:50:50;;;;;;;15.57;9.60;;;;;;;;;;5016936;28;20430;-81
2023/03/19 03:53:27;;;;;;;14.90;9.73;;;;;;;;;;5008519;28;20425;-80
2023/03/19 03:56:01;;;;;;;16.20;10.10;;;;;;;;;;5018184;28;20433;-80
2023/03/19 03:58:35;;;;;;;17.52;10.68;;;;;;;;;;5017161;28;20444;-80
2023/03/19 04:01:03;;;;;;;15.65;10.35;;;;;;;;;;5008119;28;20419;-80
2023/03/19 04:03:36;;;;;;;16.20;9.95;;;;;;;;;;5002728;28;20451;-80
2023/03/19 04:06:09;;;;;;;17.13;10.77;;;;;;;;;;4998880;28;20425;-80
2023/03/19 04:08:42;;;;;;;15.38;10.50;;;;;;;;;;5016669;28;20437;-80
2023/03/19 04:11:15;;;;;;;16.13;10.77;;;;;;;;;;5005709;28;20437;-80
2023/03/19 04:13:49;;;;;;;18.05;10.43;;;;;;;;;;5016325;28;20434;-80
2023/03/19 04:16:22;;;;;;;15.00;9.82;;;;;;;;;;5015326;28;20421;-80
2023/03/19 04:18:55;;;;;;;14.68;9.85;;;;;;;;;;4999170;28;20434;-80
2023/03/19 04:21:23;;;;;;;14.13;9.70;;;;;;;;;;5007248;28;20426;-80
2023/03/19 04:23:56;;;;;;;16.02;10.25;;;;;;;;;;5002481;28;20431;-80
2023/03/19 04:26:23;;;;;;;14.17;9.80;;;;;;;;;;5002550;28;21008;-80
2023/03/19 04:28:58;;;;;;;14.90;10.05;;;;;;;;;;5017080;28;20434;-80
2023/03/19 04:31:32;;;;;;;16.85;11.23;;;;;;;;;;5005874;28;20432;-80
2023/03/19 04:33:59;;;;;;;18.27;11.43;;;;;;;;;;4999899;28;20449;-80
2023/03/19 04:36:32;;;;;;;17.13;11.57;;;;;;;;;;5015653;28;20432;-81
2023/03/19 04:39:05;;;;;;;18.70;12.05;;;;;;;;;;5017375;28;21915;-80
2023/03/19 04:41:38;;;;;;;18.75;12.20;;;;;;;;;;5003048;28;20932;-80
2023/03/19 04:44:42;;;;;;;18.15;12.18;;;;;;;;;;4999730;28;20441;-80
2023/03/19 04:47:11;;;;;;;19.73;12.33;;;;;;;;;;5007734;28;20786;-80
2023/03/19 04:49:51;;;;;;;19.88;11.77;;;;;;;;;;5015575;28;20422;-80
2023/03/19 04:52:25;;;;;;;18.33;12.40;;;;;;;;;;4999766;28;20932;-81
2023/03/19 04:54:54;;;;;;;19.13;12.55;;;;;;;;;;5007093;28;20445;-80
2023/03/19 04:57:27;;;;;;;22.88;14.32;;;;;;;;;;5000399;28;20443;-80
2023/03/19 05:00:02;;;;;;;18.92;12.50;;;;;;;;;;5005914;28;20446;-80
2023/03/19 05:02:41;;;;;;;20.10;13.00;;;;;;;;;;4998601;28;20535;-80
2023/03/19 05:05:14;;;;;;;21.35;13.25;;;;;;;;;;5002764;28;20782;-81
2023/03/19 05:07:47;;;;;;;19.90;13.35;;;;;;;;;;5000999;28;20433;-80
2023/03/19 05:10:20;;;;;;;18.48;12.48;;;;;;;;;;5001165;28;20437;-80
2023/03/19 05:12:53;;;;;;;20.30;13.27;;;;;;;;;;5014907;28;20427;-80
2023/03/19 05:15:23;;;;;;;22.00;13.75;;;;;;;;;;5016388;28;20842;-81
2023/03/19 05:18:01;;;;;;;21.60;12.77;;;;;;;;;;5000876;28;20434;-81
2023/03/19 05:20:38;;;;;;;21.75;13.23;;;;;;;;;;5006717;28;20926;-80
2023/03/19 05:23:17;;;;;;;19.27;13.13;;;;;;;;;;5002956;28;20562;-80
2023/03/19 05:25:53;;;;;;;23.38;13.77;;;;;;;;;;5015155;28;20426;-80
2023/03/19 05:28:47;;;;;;;21.52;13.27;;;;;;;;;;5003793;28;20426;-80
2023/03/19 05:31:28;;;;;;;21.40;14.20;;;;;;;;;;5003877;28;20420;-80
2023/03/19 05:34:01;;;;;;;22.90;14.55;;;;;;;;;;5008752;28;20426;-80
2023/03/19 05:36:35;;;;;;;21.88;14.55;;;;;;;;;;5020286;28;20439;-80
2023/03/19 05:39:12;;;;;;;21.40;14.00;;;;;;;;;;5007326;28;20422;-81
2023/03/19 05:41:45;;;;;;;22.98;15.38;;;;;;;;;;5017635;28;20433;-80
2023/03/19 05:44:17;;;;;;;23.35;15.63;;;;;;;;;;5019137;28;20759;-81
2023/03/19 05:47:07;;;;;;;23.92;16.48;;;;;;;;;;5019239;28;20470;-80
2023/03/19 05:49:38;;;;;;;25.38;16.77;;;;;;;;;;5022423;28;20425;-80
2023/03/19 05:52:11;;;;;;;23.95;15.65;;;;;;;;;;5008198;28;20437;-80
2023/03/19 05:54:48;;;;;;;23.50;15.30;;;;;;;;;;5018437;28;21145;-80
2023/03/19 05:57:32;;;;;;;23.88;15.48;;;;;;;;;;5019122;28;20451;-80
2023/03/19 06:00:18;;;;;;;23.10;15.00;;;;;;;;;;5008178;28;20424;-80
2023/03/19 06:02:53;;;;;;;22.60;14.40;;;;;;;;;;4999125;28;20922;-80
2023/03/19 06:05:26;;;;;;;22.27;14.15;;;;;;;;;;5009034;28;20428;-80
2023/03/19 06:08:17;;;;;;;22.98;15.52;;;;;;;;;;5015515;28;20431;-80
2023/03/19 06:11:05;;;;;;;24.13;15.00;;;;;;;;;;5008861;28;20428;-79
2023/03/19 06:13:38;;;;;;;22.50;14.63;;;;;;;;;;5004480;28;20758;-80
2023/03/19 06:16:15;;;;;;;23.10;14.57;;;;;;;;;;5009581;28;20787;-80
2023/03/19 06:18:53;;;;;;;20.05;14.82;;;;;;;;;;5001621;28;20424;-80
2023/03/19 06:21:29;;;;;;;22.10;14.05;;;;;;;;;;5009949;28;20784;-80
2023/03/19 06:24:03;;;;;;;21.08;14.93;;;;;;;;;;5019033;28;20427;-80
2023/03/19 06:26:38;;;;;;;21.60;14.38;;;;;;;;;;5000884;28;20426;-81
2023/03/19 06:29:15;;;;;;;21.50;13.40;;;;;;;;;;5004741;28;20880;-80
2023/03/19 06:31:47;;;;;;;20.52;14.00;;;;;;;;;;5008311;28;20435;-80
2023/03/19 06:34:23;;;;;;;21.90;13.80;;;;;;;;;;5018739;28;20899;-80
2023/03/19 06:36:52;;;;;;;21.25;14.23;;;;;;;;;;5016753;28;20426;-80
2023/03/19 06:39:20;;;;;;;23.80;15.77;;;;;;;;;;5007256;28;20425;-80
2023/03/19 06:41:53;;;;;;;21.83;15.10;;;;;;;;;;5009374;28;21091;-80
2023/03/19 06:44:27;;;;;;;20.50;15.27;;;;;;;;;;5008312;28;20425;-80
2023/03/19 06:46:59;;;;;;;22.58;14.52;;;;;;;;;;5008556;28;20436;-80
2023/03/19 06:49:29;;;;;;;20.30;13.75;;;;;;;;;;5001889;28;20873;-81
2023/03/19 06:51:57;;;;;;;18.57;12.93;;;;;;;;;;4999967;28;20515;-80
2023/03/19 06:54:30;;;;;;;19.17;13.50;;;;;;;;;;5008376;28;20444;-81
2023/03/19 06:57:02;;;;;;;18.15;12.60;;;;;;;;;;5017646;28;20436;-80
2023/03/19 06:59:35;;;;;;;18.25;11.95;;;;;;;;;;5004726;28;20418;-80
2023/03/19 07:02:10;;;;;;;17.90;12.32;;;;;;;;;;5002962;28;20901;-80
2023/03/19 07:04:39;;;;;;;17.50;11.90;;;;;;;;;;5017322;28;21019;-80
2023/03/19 07:07:11;;;;;;;17.55;11.48;;;;;;;;;;5007289;28;20425;-80
2023/03/19 07:09:44;;;;;;;16.35;11.05;;;;;;;;;;5002362;28;21104;-80
2023/03/19 07:12:17;;;;;;;19.20;12.82;;;;;;;;;;5002570;28;20425;-80
2023/03/19 07:14:50;;;;;;;16.38;11.70;;;;;;;;;;5008529;28;20435;-80
2023/03/19 07:17:23;;;;;;;16.73;11.77;;;;;;;;;;5017659;28;20442;-80
2023/03/19 07:19:57;;;;;;;18.10;12.10;;;;;;;;;;5002879;28;20431;-81
2023/03/19 07:22:25;;;;;;;16.05;11.35;;;;;;;;;;5003555;28;20427;-80
2023/03/19 07:24:58;;;;;;;16.50;11.33;;;;;;;;;;5001969;28;20441;-80
2023/03/19 07:27:31;;;;;;;18.35;11.35;;;;;;;;;;5016901;28;21139;-80
2023/03/19 07:29:59;;;;;;;18.80;11.38;;;;;;;;;;5003222;28;20766;-79
2023/03/19 07:32:26;;;;;;;18.20;11.50;;;;;;;;;;5008575;28;20425;-80
2023/03/19 07:35:00;;;;;;;17.67;11.50;;;;;;;;;;5014323;28;20428;-80
2023/03/19 07:37:28;;;;;;;18.30;11.82;;;;;;;;;;5007073;28;20426;-80
2023/03/19 07:40:01;;;;;;;18.48;12.52;;;;;;;;;;5007586;28;20943;-80
2023/03/19 07:42:35;;;;;;;17.20;12.33;;;;;;;;;;5008954;28;20433;-80
2023/03/19 07:45:08;;;;;;;17.48;11.88;;;;;;;;;;5003886;28;20436;-80
2023/03/19 07:47:41;;;;;;;17.25;12.25;;;;;;;;;;4999217;28;20884;-80
2023/03/19 07:50:11;;;;;;;17.80;11.65;;;;;;;;;;5001804;28;20420;-80
2023/03/19 07:52:38;;;;;;;18.80;11.50;;;;;;;;;;5001644;28;20418;-80
2023/03/19 07:55:11;;;;;;;16.80;11.40;;;;;;;;;;5002805;28;20791;-80
2023/03/19 07:57:44;;;;;;;16.52;11.60;;;;;;;;;;5007237;28;20424;-80
2023/03/19 08:00:17;;;;;;;16.17;10.82;;;;;;;;;;5007455;28;20433;-80
2023/03/19 08:02:50;;;;;;;18.23;10.90;;;;;;;;;;5006936;28;20429;-79
2023/03/19 08:05:24;;;;;;;15.52;10.38;;;;;;;;;;5016935;28;20429;-80
2023/03/19 08:07:52;;;;;;;15.13;10.18;;;;;;;;;;5000418;28;20438;-80
2023/03/19 08:10:25;;;;;;;15.68;10.68;;;;;;;;;;5004644;28;20425;-81
2023/03/19 08:12:57;;;;;;;15.65;10.77;;;;;;;;;;5008046;28;20819;-81
2023/03/19 08:15:30;;;;;;;15.98;10.93;;;;;;;;;;5001815;28;20432;-81
2023/03/19 08:18:04;;;;;;;16.33;10.95;;;;;;;;;;5001920;28;20429;-80
2023/03/19 08:20:33;;;;;;;15.52;10.65;;;;;;;;;;4999303;28;20439;-79
2023/03/19 08:23:06;;;;;;;16.50;10.32;;;;;;;;;;5003466;28;20769;-79
2023/03/19 08:25:39;;;;;;;15.07;10.30;;;;;;;;;;5000954;28;20440;-79
2023/03/19 08:28:12;;;;;;;17.55;10.75;;;;;;;;;;5007056;28;20467;-81
2023/03/19 08:30:44;;;;;;;14.40;9.38;;;;;;;;;;4997319;28;20465;-80
2023/03/19 08:33:12;;;;;;;16.20;9.60;;;;;;;;;;5000763;28;20433;-80
2023/03/19 08:35:46;;;;;;;16.52;9.65;;;;;;;;;;5014551;28;21128;-80
2023/03/19 08:38:19;;;;;;;14.20;8.97;;;;;;;;;;5013963;28;21028;-80
2023/03/19 08:41:00;;;;;;;14.23;9.13;;;;;;;;;;5014547;28;20920;-80
2023/03/19 08:43:35;;;;;;;13.50;8.85;;;;;;;;;;5014970;28;20930;-79
2023/03/19 08:46:08;;;;;;;14.73;9.40;;;;;;;;;;5014900;28;20442;-80
2023/03/19 08:48:41;;;;;;;14.45;9.75;;;;;;;;;;5006169;28;20434;-81
2023/03/19 08:51:15;;;;;;;16.02;9.90;;;;;;;;;;5015352;28;20457;-80
2023/03/19 08:53:43;;;;;;;15.73;9.98;;;;;;;;;;5013816;28;20492;-78
2023/03/19 08:56:15;;;;;;;17.03;9.87;;;;;;;;;;5000423;28;20438;-80
2023/03/19 08:58:44;;;;;;;14.67;10.03;;;;;;;;;;5001985;28;20426;-80
2023/03/19 09:01:13;;;;;;;17.48;10.50;;;;;;;;;;4998289;28;20443;-80
2023/03/19 09:03:41;;;;;;;14.18;9.63;;;;;;;;;;5004409;28;20440;-78
2023/03/19 09:06:10;;;;;;;14.57;9.77;;;;;;;;;;5005209;28;20920;-80
2023/03/19 09:08:39;;;;;;;15.10;10.40;;;;;;;;;;5006096;28;20514;-79
2023/03/19 09:11:13;;;;;;;14.85;10.30;;;;;;;;;;5007723;28;20460;-81
2023/03/19 09:13:46;;;;;;;14.48;10.07;;;;;;;;;;5007296;28;20445;-80
2023/03/19 09:16:14;;;;;;;16.33;10.05;;;;;;;;;;5009076;28;20439;-79
2023/03/19 09:18:42;;;;;;;13.45;9.45;;;;;;;;;;5004182;28;20430;-79
2023/03/19 09:21:15;;;;;;;14.30;10.00;;;;;;;;;;5018626;28;20433;-80
2023/03/19 09:23:44;;;;;;;14.48;9.68;;;;;;;;;;5004930;28;20434;-79
2023/03/19 09:26:17;;;;;;;15.80;9.80;;;;;;;;;;5016147;28;20428;-79
2023/03/19 09:28:50;;;;;;;16.30;9.13;;;;;;;;;;5019487;28;20449;-79
2023/03/19 09:31:18;;;;;;;14.13;8.93;;;;;;;;;;5004097;28;20441;-79
2023/03/19 09:33:46;;;;;;;12.77;8.10;;;;;;;;;;5002345;28;20439;-80
2023/03/19 09:36:13;;;;;;;12.57;7.63;;;;;;;;;;5003350;28;20451;-79
2023/03/19 09:38:49;;;;;;;12.13;7.73;;;;;;;;;;5003969;28;20933;-79
2023/03/19 09:41:27;;;;;;;13.85;8.23;;;;;;;;;;5017392;28;20441;-79
2023/03/19 09:44:01;;;;;;;11.90;7.53;;;;;;;;;;5002605;28;20789;-79
2023/03/19 09:46:37;;;;;;;12.73;7.40;;;;;;;;;;5000634;28;20426;-79
2023/03/19 09:49:10;;;;;;;13.07;7.47;;;;;;;;;;4999959;28;20425;-79
2023/03/19 09:51:40;;;;;;;13.27;7.22;;;;;;;;;;4999859;28;20444;-79
2023/03/19 09:54:20;;;;;;;11.10;6.55;;;;;;;;;;5003556;28;20439;-79
2023/03/19 09:56:48;;;;;;;12.65;7.00;;;;;;;;;;5001129;28;20442;-79
2023/03/19 09:59:16;;;;;;;13.23;7.78;;;;;;;;;;5015341;28;20449;-79
2023/03/19 10:01:52;;;;;;;11.73;7.20;;;;;;;;;;5017201;28;20436;-79
2023/03/19 10:04:36;;;;;;;11.75;6.95;;;;;;;;;;5002614;28;20429;-79
2023/03/19 10:07:15;;;;;;;12.07;7.35;;;;;;;;;;5016932;28;20433;-79
2023/03/19 10:09:57;;;;;;;13.07;6.68;;;;;;;;;;5001782;28;20887;-79
2023/03/19 10:12:31;;;;;;;9.52;5.70;;;;;;;;;;5016202;28;20434;-79
2023/03/19 10:15:12;;;;;;;11.60;7.28;;;;;;;;;;5006822;28;20780;-79
2023/03/19 10:17:51;;;;;;;12.50;7.18;;;;;;;;;;5000175;28;20920;-80
2023/03/19 10:20:35;;;;;;;10.55;6.20;;;;;;;;;;5017520;28;20428;-79
2023/03/19 10:23:24;;;;;;;9.63;5.70;;;;;;;;;;5006153;28;20425;-79
2023/03/19 10:25:54;;;;;;;10.45;5.75;;;;;;;;;;5017839;28;20792;-78
2023/03/19 10:28:23;;;;;;;9.07;5.63;;;;;;;;;;5003509;28;20765;-79
2023/03/19 10:31:01;;;;;;;11.88;5.70;;;;;;;;;;5002331;28;20430;-79
2023/03/19 10:33:37;;;;;;;10.90;5.30;;;;;;;;;;5001462;28;20928;-79
2023/03/19 10:36:08;;;;;;;7.80;4.57;;;;;;;;;;5004973;28;20425;-79
2023/03/19 10:38:42;;;;;;;9.43;4.60;;;;;;;;;;5004018;28;20434;-79
2023/03/19 10:41:31;;;;;;;10.73;5.10;;;;;;;;;;4999031;28;20452;-79
2023/03/19 10:44:06;;;;;;;9.18;4.97;;;;;;;;;;5019543;28;20965;-80
2023/03/19 10:46:40;;;;;;;11.15;4.80;;;;;;;;;;5013303;28;20434;-79
2023/03/19 10:49:11;;;;;;;8.32;4.90;;;;;;;;;;4997263;28;20441;-78
2023/03/19 10:51:39;;;;;;;9.02;5.25;;;;;;;;;;4997016;28;20426;-79
2023/03/19 10:54:18;;;;;;;9.75;4.57;;;;;;;;;;5015914;28;20438;-80
2023/03/19 10:56:55;;;;;;;9.65;5.07;;;;;;;;;;4999322;28;20432;-79
2023/03/19 10:59:32;;;;;;;11.80;4.97;;;;;;;;;;4999767;28;20424;-79
2023/03/19 11:02:15;;;;;;;10.90;4.95;;;;;;;;;;4999720;28;20432;-78
2023/03/19 11:04:48;;;;;;;8.90;5.13;;;;;;;;;;5016422;28;20450;-80
2023/03/19 11:07:21;;;;;;;9.00;4.95;;;;;;;;;;5001914;28;20901;-79
2023/03/19 11:09:55;;;;;;;10.27;5.07;;;;;;;;;;5003927;28;20430;-79
2023/03/19 11:12:27;;;;;;;8.57;4.78;;;;;;;;;;5000363;28;21225;-79
2023/03/19 11:14:57;;;;;;;8.33;4.50;;;;;;;;;;4999275;28;20800;-79
2023/03/19 11:17:37;;;;;;;8.75;4.40;;;;;;;;;;5003102;28;20451;-79
2023/03/19 11:20:18;;;;;;;8.35;4.80;;;;;;;;;;5014218;28;20437;-79
2023/03/19 11:22:52;;;;;;;9.30;5.00;;;;;;;;;;5001634;28;20495;-79
2023/03/19 11:25:26;;;;;;;9.00;4.20;;;;;;;;;;5014774;28;20436;-79
2023/03/19 11:27:59;;;;;;;9.65;5.10;;;;;;;;;;5002148;28;20445;-79
2023/03/19 11:30:36;;;;;;;10.00;4.97;;;;;;;;;;5013748;28;20434;-80
2023/03/19 11:33:20;;;;;;;8.98;4.57;;;;;;;;;;5019138;28;20435;-79
2023/03/19 11:35:58;;;;;;;11.68;4.47;;;;;;;;;;5004166;28;20441;-86
2023/03/19 11:38:30;;;;;;;10.10;4.32;;;;;;;;;;5001692;28;20999;-79
2023/03/19 11:41:05;;;;;;;8.03;4.03;;;;;;;;;;5001814;28;20428;-79
2023/03/19 11:43:44;;;;;;;9.60;4.85;;;;;;;;;;5014535;28;20438;-79
2023/03/19 11:46:23;;;;;;;9.63;5.00;;;;;;;;;;4991868;28;20436;-80
2023/03/19 11:49:06;;;;;;;9.02;4.32;;;;;;;;;;4988752;28;20437;-79
2023/03/19 11:51:37;;;;;;;11.05;4.20;;;;;;;;;;4977137;28;21093;-80
2023/03/19 11:54:15;;;;;;;7.93;4.05;;;;;;;;;;4995953;28;20440;-81
2023/03/19 11:56:48;;;;;;;8.38;3.90;;;;;;;;;;4967239;28;20432;-79
2023/03/19 11:59:24;;;;;;;8.10;3.42;;;;;;;;;;4976584;28;20448;-80
2023/03/19 12:02:08;;;;;;;6.43;3.45;;;;;;;;;;4974954;28;20434;-80
2023/03/19 12:04:50;;;;;;;8.80;3.78;;;;;;;;;;4972689;28;21898;-79
2023/03/19 12:07:25;;;;;;;8.57;3.80;;;;;;;;;;4976748;28;20532;-79
2023/03/19 12:10:02;;;;;;;8.80;3.70;;;;;;;;;;4983802;28;20428;-79
2023/03/19 12:12:42;;;;;;;7.85;4.05;;;;;;;;;;4989493;28;20439;-80
2023/03/19 12:15:17;;;;;;;6.85;3.55;;;;;;;;;;4993456;28;20514;-79
2023/03/19 12:17:57;;;;;;;7.15;3.60;;;;;;;;;;4994325;28;20446;-80
2023/03/19 12:20:29;;;;;;;9.73;3.77;;;;;;;;;;5012311;28;20537;-80
2023/03/19 12:23:06;;;;;;;8.75;3.35;;;;;;;;;;4995551;28;20441;-79
2023/03/19 12:25:49;;;;;;;7.80;3.53;;;;;;;;;;4996365;28;20442;-79
2023/03/19 12:28:19;;;;;;;8.77;3.15;;;;;;;;;;5009441;28;20521;-80
2023/03/19 12:31:00;;;;;;;7.03;3.10;;;;;;;;;;4998477;28;21257;-79
2023/03/19 12:33:39;;;;;;;5.60;2.63;;;;;;;;;;4998471;28;20431;-80
2023/03/19 12:36:15;;;;;;;7.03;2.60;;;;;;;;;;5002932;28;20546;-79
2023/03/19 12:38:49;;;;;;;6.40;2.67;;;;;;;;;;5006885;28;20431;-80
2023/03/19 12:41:23;;;;;;;6.60;2.90;;;;;;;;;;5003846;28;21478;-80
2023/03/19 12:43:58;;;;;;;5.82;2.95;;;;;;;;;;5004555;28;20423;-80
2023/03/19 12:46:34;;;;;;;6.63;2.70;;;;;;;;;;5003312;28;20521;-79
2023/03/19 12:49:10;;;;;;;7.67;3.00;;;;;;;;;;4998187;28;20432;-79
2023/03/19 12:51:42;;;;;;;7.38;2.83;;;;;;;;;;5011984;28;20422;-80
2023/03/19 12:54:12;;;;;;;7.90;3.00;;;;;;;;;;5000320;28;20492;-79
2023/03/19 12:56:43;;;;;;;8.15;2.90;;;;;;;;;;5000819;28;20435;-80
2023/03/19 12:59:20;;;;;;;6.35;2.88;;;;;;;;;;5018593;28;20465;-80
2023/03/19 13:01:59;;;;;;;5.57;2.63;;;;;;;;;;5002650;28;20427;-78
2023/03/19 13:04:35;;;;;;;6.82;2.67;;;;;;;;;;5001489;28;20444;-79
2023/03/19 13:07:11;;;;;;;5.13;2.50;;;;;;;;;;5003718;28;22174;-79
2023/03/19 13:09:40;;;;;;;6.28;2.47;;;;;;;;;;5002140;28;20426;-79
2023/03/19 13:12:16;;;;;;;6.00;2.33;;;;;;;;;;5002582;28;20886;-79
2023/03/19 13:14:52;;;;;;;4.70;2.20;;;;;;;;;;4996272;28;20431;-79
2023/03/19 13:17:24;;;;;;;7.00;2.30;;;;;;;;;;5012798;28;20966;-79
2023/03/19 13:19:58;;;;;;;5.32;2.35;;;;;;;;;;5005810;28;20998;-79
2023/03/19 13:22:32;;;;;;;4.68;2.10;;;;;;;;;;4974931;28;20425;-80
2023/03/19 13:25:01;;;;;;;8.27;2.10;;;;;;;;;;4983083;28;20444;-79
2023/03/19 13:27:30;;;;;;;4.10;2.10;;;;;;;;;;4992996;28;20994;-80
2023/03/19 13:30:06;;;;;;;4.60;2.00;;;;;;;;;;4980723;28;20448;-80
2023/03/19 13:32:40;;;;;;;4.18;2.20;;;;;;;;;;4994706;28;20435;-79
2023/03/19 13:35:18;;;;;;;6.55;2.13;;;;;;;;;;4975856;28;20436;-80
2023/03/19 13:37:47;;;;;;;4.38;2.10;;;;;;;;;;4971424;28;20795;-79
2023/03/19 13:40:40;;;;;;;4.80;2.20;;;;;;;;;;4969971;28;20443;-79
2023/03/19 13:43:21;;;;;;;6.20;2.40;;;;;;;;;;4968902;28;21277;-80
2023/03/19 13:46:02;;;;;;;4.90;2.30;;;;;;;;;;4970275;28;20436;-79
2023/03/19 13:48:37;;;;;;;4.68;2.03;;;;;;;;;;4994072;28;20558;-79
2023/03/19 13:51:24;;;;;;;4.28;2.20;;;;;;;;;;5006770;28;20420;-80
2023/03/19 13:53:53;;;;;;;5.10;2.20;;;;;;;;;;4982594;28;20455;-79
2023/03/19 13:56:27;;;;;;;5.90;2.60;;;;;;;;;;4983418;28;20437;-80
2023/03/19 13:59:10;;;;;;;5.80;2.50;;;;;;;;;;4975556;28;20442;-79
2023/03/19 14:01:44;;;;;;;5.68;2.70;;;;;;;;;;4980422;28;20436;-79
2023/03/19 14:04:18;;;;;;;5.30;2.58;;;;;;;;;;4996704;28;20483;-79
2023/03/19 14:06:47;;;;;;;5.90;2.53;;;;;;;;;;4977246;28;20441;-79
2023/03/19 14:09:29;;;;;;;7.57;3.10;;;;;;;;;;4972451;28;20423;-79
2023/03/19 14:12:09;;;;;;;6.13;2.65;;;;;;;;;;4992612;28;20432;-80
2023/03/19 14:14:43;;;;;;;5.90;2.40;;;;;;;;;;4976197;28;20439;-78
2023/03/19 14:17:19;;;;;;;6.60;3.20;;;;;;;;;;4973262;28;20443;-80
2023/03/19 14:19:49;;;;;;;6.25;2.30;;;;;;;;;;4975120;28;20433;-79
2023/03/19 14:22:32;;;;;;;6.63;2.83;;;;;;;;;;4974154;28;21955;-80
2023/03/19 14:25:12;;;;;;;6.18;2.65;;;;;;;;;;5019266;28;20446;-80
2023/03/19 14:27:46;;;;;;;4.18;2.30;;;;;;;;;;4998985;28;20438;-79
2023/03/19 14:30:21;;;;;;;6.80;2.55;;;;;;;;;;5003497;28;20933;-79
2023/03/19 14:32:55;;;;;;;7.85;2.72;;;;;;;;;;5006309;28;21424;-79
2023/03/19 14:35:32;;;;;;;8.10;2.90;;;;;;;;;;5015882;28;20442;-79
2023/03/19 14:38:09;;;;;;;5.80;2.20;;;;;;;;;;5004670;28;20427;-79
2023/03/19 14:40:41;;;;;;;5.00;2.00;;;;;;;;;;4996284;28;21060;-80
2023/03/19 14:43:14;;;;;;;4.55;2.20;;;;;;;;;;5001943;28;20772;-80
2023/03/19 14:45:46;;;;;;;7.28;2.58;;;;;;;;;;4999146;28;20438;-80
2023/03/19 14:48:37;;;;;;;4.60;2.00;;;;;;;;;;4990014;28;21060;-79
2023/03/19 14:51:26;;;;;;;2.78;1.50;;;;;;;;;;5008143;28;20446;-79
2023/03/19 14:54:03;;;;;;;2.83;1.60;;;;;;;;;;5002347;28;20442;-79
2023/03/19 14:56:36;;;;;;;3.33;1.80;;;;;;;;;;5009872;28;20434;-79
2023/03/19 14:59:13;;;;;;;3.55;1.80;;;;;;;;;;4997706;28;20445;-79
2023/03/19 15:01:43;;;;;;;3.00;1.80;;;;;;;;;;4999143;28;20419;-80
2023/03/19 15:04:14;;;;;;;5.45;2.60;;;;;;;;;;5006333;28;20434;-81
2023/03/19 15:06:51;;;;;;;5.50;2.33;;;;;;;;;;5003620;28;20981;-80
2023/03/19 15:09:28;;;;;;;4.40;2.10;;;;;;;;;;5003415;28;20437;-83
2023/03/19 15:12:10;;;;;;;4.80;2.03;;;;;;;;;;5006260;28;20439;-80